Port Hedland, Australia

8:17 AM AWST on April 30, 2017 (GMT +0800)
Port Hedland International

Weather History for YPPD - December, 2011

Change the Weather History Date:

Thursday, December 22, 2011

  Actual Average Record
Temperature  
Mean Temperature 89 °F -  
Max Temperature 96 °F 97 °F 102 °F (2005)
Min Temperature 82 °F 77 °F 73 °F (2007)
Cooling Degree Days 24    
Growing Degree Days 39 (Base 50)    
Moisture  
Dew Point 76 °F    
Average Humidity 65    
Maximum Humidity 89    
Minimum Humidity 41    
Precipitation  
Precipitation 0.00 in 0.07 in - ()
Sea Level Pressure  
Sea Level Pressure 29.60 in    
Wind  
Wind Speed 12 mph ()    
Max Wind Speed 24 mph    
Max Gust Speed -    
Visibility 6.7 miles    
Events      
Averages and records for this station are not official NWS values.
T = Trace of Precipitation, MM = Missing Value Source: Averaged Metar Reports

Daily Weather History Graph

Daily Weather History Graph

Search for Another Location

Airport or City:

Trip Planner

Search our weather history database for the weather conditions in past years. The results will help you decide how hot, cold, wet, or windy it might be!

Date:

Astronomy

Dec. 22, 2011 Rise Set
Actual Time 5:22 AM AWST 6:44 PM AWST
Civil Twilight 4:57 AM AWST 7:09 PM AWST
Nautical Twilight 4:28 AM AWST 7:38 PM AWST
Astronomical Twilight 3:58 AM AWST 8:09 PM AWST
Moon 2:41 AM AWST (12/22) 4:15 PM AWST (12/22)
Length of Visible Light 14h 11m
Length of Day
13h 22m
Waning Crescent, 9% of the Moon is Illuminated
Dec 22
Waning Crescent
Dec 25
New
Jan 1
First Quarter
Jan 9
Full
Jan 16
Last Quarter

Hourly Weather History & Observations

Time (AWST) Temp. Heat Index Dew Point Humidity Pressure Visibility Wind Dir Wind Speed Gust Speed Precip Events Conditions
12:00 AM 87 °F - 74 °F 59% 29.59 in - WNW 10.4 mph - -  
12:00 AM 87.8 °F 97.6 °F 75.2 °F 66% 29.59 in 6.2 mi WNW 10.4 mph - N/A   Unknown
12:30 AM 87.8 °F 95.6 °F 73.4 °F 62% 29.56 in 6.2 mi NW 6.9 mph - N/A   Scattered Clouds
1:00 AM 89.6 °F 96.2 °F 71.6 °F 55% 29.53 in 6.2 mi WSW 10.4 mph - N/A   Unknown
1:30 AM 89.6 °F 94.7 °F 69.8 °F 52% 29.50 in 6.2 mi West 12.7 mph - N/A   Unknown
2:00 AM 87 °F - 73 °F 54% 29.52 in - West 9.2 mph - -  
2:00 AM 87.8 °F 95.6 °F 73.4 °F 62% 29.50 in 6.2 mi West 9.2 mph - N/A   Unknown
2:30 AM 86.0 °F 93.4 °F 73.4 °F 66% 29.50 in 6.2 mi WSW 11.5 mph - N/A   Unknown
3:00 AM 85 °F - 72 °F 57%  in - East 5.8 mph - -  
3:00 AM 84.2 °F 89.6 °F 71.6 °F 66% 29.53 in 6.2 mi East 5.8 mph - N/A   Unknown
3:30 AM 86.0 °F 91.8 °F 71.6 °F 62% 29.53 in 6.2 mi SSE 8.1 mph - N/A   Unknown
4:00 AM 86.0 °F 90.4 °F 69.8 °F 58% 29.56 in 6.2 mi SSE 10.4 mph - N/A   Unknown
4:30 AM 86.0 °F 90.4 °F 69.8 °F 58% 29.59 in 6.2 mi ESE 8.1 mph - N/A   Unknown
5:00 AM 84 °F - 75 °F 68% 29.60 in - East 9.2 mph - -  
5:00 AM 84.2 °F 92.3 °F 75.2 °F 74% 29.59 in 6.2 mi East 9.2 mph - N/A   Unknown
5:30 AM 82.4 °F 89.5 °F 75.2 °F 79% 29.62 in 6.2 mi East 10.4 mph - N/A   Unknown
6:00 AM 85 °F - 73 °F 60% 29.62 in 9 mi ENE 10.4 mph - -   Haze
6:00 AM 84.2 °F 90.9 °F 73.4 °F 70% 29.62 in - ENE 10.4 mph - N/A   Clear
6:30 AM 86.0 °F 95.1 °F 75.2 °F 70% 29.62 in - ENE 10.4 mph - N/A   Clear
6:57 AM 87.8 °F 97.6 °F 75.2 °F 66% 29.65 in - ENE 24.2 mph - N/A   Clear
7:00 AM 87.8 °F 97.6 °F 75.2 °F 66% 29.62 in - ENE 18.4 mph - N/A   Clear
7:30 AM 89.6 °F 104.7 °F 78.8 °F 70% 29.65 in 6.2 mi ENE 21.9 mph - N/A   Partly Cloudy
8:00 AM 90 °F - 79 °F 64% 29.68 in - NE 18.4 mph - -  
8:00 AM 89.6 °F 104.7 °F 78.8 °F 70% 29.68 in 6.2 mi NE 18.4 mph - N/A   Partly Cloudy
8:30 AM 89.6 °F 104.7 °F 78.8 °F 70% 29.68 in 6.2 mi NE 21.9 mph - N/A   Partly Cloudy
9:00 AM 89 °F - 79 °F 67% 29.70 in 9 mi NNE 20.7 mph - -   Haze
9:00 AM 89.6 °F 104.7 °F 78.8 °F 70% 29.68 in 6.2 mi NNE 20.7 mph - N/A   Partly Cloudy
9:30 AM 89.6 °F 104.7 °F 78.8 °F 70% 29.68 in 6.2 mi NNE 16.1 mph - N/A   Partly Cloudy
10:00 AM 91.4 °F 107.2 °F 78.8 °F 66% 29.68 in 6.2 mi NNE 15.0 mph - N/A   Partly Cloudy
10:30 AM 91.4 °F 107.2 °F 78.8 °F 66% 29.68 in 6.2 mi NNE 13.8 mph - N/A   Unknown
11:00 AM 94 °F - 75 °F 45% 29.67 in - NNE 15.0 mph - -  
11:00 AM 93.2 °F 105.0 °F 75.2 °F 56% 29.65 in - NNE 15.0 mph - N/A   Clear
11:30 AM 95.0 °F 104.5 °F 73.4 °F 49% 29.65 in - NNE 17.3 mph - N/A   Clear
12:00 PM 94 °F - 73 °F 41% 29.65 in 12 mi NNE 19.6 mph - -   Haze
12:00 PM 95.0 °F 104.5 °F 73.4 °F 49% 29.62 in - NNE 19.6 mph - N/A   Clear
12:30 PM 93.2 °F 102.4 °F 73.4 °F 52% 29.62 in - NNE 19.6 mph - N/A   Clear
1:00 PM 93.2 °F 107.2 °F 77.0 °F 59% 29.62 in - NNE 17.3 mph - N/A   Clear
1:30 PM 95.0 °F 107.4 °F 75.2 °F 53% 29.59 in - NNE 17.3 mph - N/A   Clear
2:00 PM 94 °F - 74 °F 44% 29.60 in - North 13.8 mph - -  
2:00 PM 95.0 °F 107.4 °F 75.2 °F 53% 29.59 in - North 13.8 mph - N/A   Clear
2:30 PM 93.2 °F 102.4 °F 73.4 °F 52% 29.59 in - NNE 13.8 mph - N/A   Clear
3:00 PM 94 °F - 74 °F 44% 29.57 in 16 mi North 15.0 mph - -   Partly Cloudy
3:00 PM 93.2 °F 105.0 °F 75.2 °F 56% 29.56 in - North 15.0 mph - N/A   Clear
3:30 PM 93.2 °F 102.4 °F 73.4 °F 52% 29.56 in 6.2 mi North 18.4 mph - N/A   Unknown
4:00 PM 93.2 °F 105.0 °F 75.2 °F 56% 29.53 in 6.2 mi North 18.4 mph - N/A   Unknown
4:30 PM 93.2 °F 105.0 °F 75.2 °F 56% 29.53 in 6.2 mi North 17.3 mph - N/A   Unknown
5:00 PM 91 °F - 75 °F 52% 29.55 in - North 17.3 mph - -  
5:00 PM 91.4 °F 102.5 °F 75.2 °F 59% 29.53 in 6.2 mi North 17.3 mph - N/A   Unknown
5:30 PM 89.6 °F 99.8 °F 75.2 °F 62% 29.53 in 6.2 mi North 16.1 mph - N/A   Unknown
6:00 PM 89 °F - 76 °F 58% 29.56 in - North 16.1 mph - -  
6:00 PM 89.6 °F 102.2 °F 77.0 °F 66% 29.53 in 6.2 mi North 16.1 mph - N/A   Unknown
6:30 PM 86.0 °F 99.3 °F 78.8 °F 79% 29.56 in 6.2 mi North 17.3 mph - N/A   Unknown
7:00 PM 86.0 °F 99.3 °F 78.8 °F 79% 29.59 in 6.2 mi North 13.8 mph - N/A   Unknown
7:30 PM 86.0 °F 99.3 °F 78.8 °F 79% 29.59 in 6.2 mi NNW 12.7 mph - N/A   Unknown
8:00 PM 85 °F - 79 °F 79% 29.62 in - NNW 10.4 mph - -  
8:00 PM 84.2 °F 96.1 °F 78.8 °F 84% 29.62 in 6.2 mi NNW 10.4 mph - N/A   Unknown
8:30 PM 84.2 °F 96.1 °F 78.8 °F 84% 29.62 in 6.2 mi NNW 9.2 mph - N/A   Unknown
9:00 PM 84 °F - 80 °F 83% 29.64 in - NW 8.1 mph - -  
9:00 PM 84.2 °F 96.1 °F 78.8 °F 84% 29.62 in 6.2 mi NW 8.1 mph - N/A   Unknown
9:30 PM 84.2 °F 96.1 °F 78.8 °F 84% 29.65 in 6.2 mi WNW 5.8 mph - N/A   Unknown
10:00 PM 84.2 °F 98.3 °F 80.6 °F 89% 29.65 in 6.2 mi NW 6.9 mph - N/A   Unknown
10:30 PM 84.2 °F 96.1 °F 78.8 °F 84% 29.65 in 6.2 mi WNW 6.9 mph - N/A   Unknown
11:00 PM 83 °F - 79 °F 84% 29.65 in - NW 6.9 mph - -  
11:00 PM 82.4 °F 92.4 °F 78.8 °F 89% 29.62 in 6.2 mi NW 6.9 mph - N/A   Unknown
11:30 PM 82.4 °F 92.4 °F 78.8 °F 89% 29.65 in 6.2 mi NNW 6.9 mph - N/A   Unknown